Aérodrome :
LOGIN :

S'inscrire | Disclaimer

   EN    FR    IT 

 










Légende :    VFR   VFR Marginal   IFR   IFR Intensif   IFR Très Intensif
Visi : 
Plafond : 
>= 8 km
>= 3000ft
5 à 8 km
1000 à 3000 ft
1500m à 5 km
500 à 1000 ft
800 à 1500m
200 à 500 ft
< 800m
< 200 ft
Symboles :   Orages  Brouillard  Fortes neiges  Fortes précipitations  Vent > 20 kt
SIGMETs :   Divers  Orages  Givrage  Turbulence  Onde Orograph.  Cendres Volcan.






- Altitude de l'aérodrome : 27 ft
- Code IATA : PMI


LEPA - Palma de Mallorca

DERNIER METAR :
  • 020600Z 24007KT 200V300 CAVOK 05/05 Q1010 NOSIG

METARs EXPIRÉS :
  • 020530Z 36001KT CAVOK 05/05 Q1010 NOSIG
  • 020500Z VRB01KT CAVOK 06/06 Q1010 NOSIG
  • 020430Z 00000KT CAVOK 06/06 Q1010 NOSIG
  • 012100Z 25007KT CAVOK 12/07 Q1013 NOSIG
  • 020400Z VRB02KT 9999 FEW016 06/05 Q1010 NOSIG
  • 020330Z 23003KT 210V350 9999 FEW016 05/05 Q1011 NOSIG
  • 020300Z VRB02KT 9999 FEW016 06/06 Q1011 NOSIG
  • 020230Z VRB02KT 9999 FEW016 06/06 Q1011 NOSIG
  • 020200Z 01002KT 9999 FEW016 06/06 Q1012 NOSIG
  • 020130Z VRB02KT 9999 FEW025 06/05 Q1012 NOSIG

TAF TAF LEPA
Valide du 02 à 06h jusqu'au 03 à 06h UTC


020500Z 0206/0306 24007KT 9999 FEW020 TX17/0213Z TN10/0206Z
BECMG 0208/0210 22018KT
TEMPO 0210/0222 22020G30KT
TEMPO 0222/0306 4000 SHRA FEW020TCU
PROB40
TEMPO 0222/0304 22023G33KT 3000 TSRA FEW020CB
BECMG 0302/0304 29013KT



MET'MAP, la Météo Aéronautique d'un coup d'oeil ! - Copyright ORBIFLY Décembre 2007 - Disclaimer

ORBIFLY MET'MAP TEAM :

Programmation & Développement : Alexandra Zaïnal
Sur une idée originale de : Baudouin d'Aumeries
Soutien technique & logistique : Manuel Goepfert
Assistance : Marc-Olivier Méhu




SOURCES & CREDITS :

   NOAA